Time;durP1;ratioP1;P1;durP2;ratioP2;P2;SDS_P1;SDS_P2;PMS_P1;PMS_P2;Temp;Humidity;BMP_temperature;BMP_pressure;BME280_temperature;BME280_humidity;BME280_pressure;Samples;Min_cycle;Max_cycle;Signal;HPM_P1;HPM_P2
2022/03/27 04:05:28;;;;;;;33.53;21.40;;;0.30;99.90;;;;;;5170483;23;20509;-81
2022/03/27 04:07:57;;;;;;;31.97;21.70;;;0.30;99.90;;;;;;4952973;28;20506;-77
2022/03/27 04:10:25;;;;;;;36.07;21.73;;;0.40;99.90;;;;;;4957079;28;20458;-79
2022/03/27 04:12:53;;;;;;;29.90;20.53;;;0.30;99.90;;;;;;4963455;28;20481;-77
2022/03/27 04:15:21;;;;;;;29.17;19.60;;;0.30;99.90;;;;;;4970633;28;20455;-79
2022/03/27 04:18:07;;;;;;;28.57;20.27;;;0.30;99.90;;;;;;4958532;28;20438;-79
2022/03/27 04:20:36;;;;;;;35.93;20.50;;;0.30;99.90;;;;;;4968396;29;20478;-75
2022/03/27 04:23:05;;;;;;;31.77;22.17;;;0.30;99.90;;;;;;4962753;28;20448;-76
2022/03/27 04:25:33;;;;;;;33.57;20.87;;;0.30;99.90;;;;;;4949486;29;20510;-76
2022/03/27 04:28:05;;;;;;;32.77;19.90;;;0.30;99.90;;;;;;4957792;29;20449;-78
2022/03/27 04:30:33;;;;;;;27.17;19.80;;;0.30;99.90;;;;;;4957118;29;20428;-78
2022/03/27 04:33:01;;;;;;;31.63;21.20;;;0.20;99.90;;;;;;4957098;29;20452;-75
2022/03/27 04:35:29;;;;;;;30.57;20.27;;;0.20;99.90;;;;;;4955755;29;20457;-79
2022/03/27 04:38:01;;;;;;;28.57;19.87;;;0.10;99.90;;;;;;4951469;29;20658;-77
2022/03/27 04:40:29;;;;;;;29.97;20.00;;;0.10;99.90;;;;;;4952211;29;20440;-78
2022/03/27 04:42:57;;;;;;;26.40;19.67;;;0.10;99.90;;;;;;4937154;29;20491;-78
2022/03/27 04:45:26;;;;;;;27.03;19.43;;;0.10;99.90;;;;;;4937757;29;20532;-79
2022/03/27 04:47:54;;;;;;;28.93;19.20;;;0.10;99.90;;;;;;4936793;29;20459;-78
2022/03/27 04:50:22;;;;;;;29.67;18.70;;;0.10;99.90;;;;;;4936780;29;21024;-79
2022/03/27 04:52:50;;;;;;;26.37;18.57;;;0.10;99.90;;;;;;4936785;29;20531;-80
2022/03/27 04:55:19;;;;;;;27.97;19.67;;;0.10;99.90;;;;;;4936739;29;20487;-76
2022/03/27 04:57:48;;;;;;;29.27;19.40;;;0.10;99.90;;;;;;4940790;29;20563;-78
2022/03/27 05:00:17;;;;;;;27.13;18.93;;;0.10;99.90;;;;;;4955486;28;20965;-77
2022/03/27 05:02:46;;;;;;;27.47;18.90;;;0.10;99.90;;;;;;4955697;28;21027;-80
2022/03/27 05:05:15;;;;;;;31.03;19.43;;;0.20;99.90;;;;;;4955741;28;20858;-80
2022/03/27 05:07:45;;;;;;;30.67;18.30;;;0.10;99.90;;;;;;4955682;28;20867;-79
2022/03/27 05:10:14;;;;;;;25.23;16.97;;;0.10;99.90;;;;;;4955465;28;20856;-79
2022/03/27 05:12:44;;;;;;;28.83;18.83;;;0.10;99.90;;;;;;4955699;28;20501;-78
2022/03/27 05:15:12;;;;;;;28.33;18.27;;;0.10;99.90;;;;;;4955662;28;20479;-76
2022/03/27 05:17:48;;;;;;;28.77;18.53;;;0.20;99.90;;;;;;4955560;28;20947;-78
2022/03/27 05:20:17;;;;;;;26.33;17.80;;;0.20;99.90;;;;;;4955529;29;20444;-80
2022/03/27 05:22:45;;;;;;;26.03;17.73;;;0.20;99.90;;;;;;4941802;28;20464;-78
2022/03/27 05:25:15;;;;;;;28.97;18.07;;;0.20;99.90;;;;;;4936397;29;20456;-78
2022/03/27 05:27:46;;;;;;;26.37;17.83;;;0.30;99.90;;;;;;4937186;29;20448;-81
2022/03/27 05:30:19;;;;;;;25.57;17.43;;;0.30;99.90;;;;;;4936514;29;20473;-79
2022/03/27 05:32:48;;;;;;;26.33;17.33;;;0.30;99.90;;;;;;4936548;29;20487;-78
2022/03/27 05:35:16;;;;;;;27.90;18.13;;;0.40;99.90;;;;;;4937018;29;20561;-78
2022/03/27 05:37:46;;;;;;;25.40;17.70;;;0.40;99.90;;;;;;4937077;29;20868;-78
2022/03/27 05:40:21;;;;;;;25.70;16.67;;;0.40;99.90;;;;;;4936723;29;20962;-80
2022/03/27 05:42:52;;;;;;;30.20;18.30;;;0.50;99.90;;;;;;4937013;29;20466;-80
2022/03/27 05:45:21;;;;;;;28.70;16.97;;;0.50;99.90;;;;;;4929967;29;20490;-78
2022/03/27 05:47:49;;;;;;;26.40;16.77;;;0.60;99.90;;;;;;4927495;29;20458;-79
2022/03/27 05:50:19;;;;;;;25.57;16.73;;;0.60;99.90;;;;;;4925868;29;20564;-79
2022/03/27 05:52:47;;;;;;;25.10;17.53;;;0.70;99.90;;;;;;4924730;29;20509;-78
2022/03/27 05:55:16;;;;;;;23.53;16.47;;;0.80;99.90;;;;;;4927458;29;20946;-79
2022/03/27 05:57:45;;;;;;;25.40;17.23;;;0.80;99.90;;;;;;4928446;29;20881;-79
2022/03/27 06:00:20;;;;;;;24.17;16.50;;;0.90;99.90;;;;;;4925662;29;20809;-79
2022/03/27 06:02:49;;;;;;;23.23;16.10;;;1.10;99.90;;;;;;4926118;29;20856;-77
2022/03/27 06:05:23;;;;;;;24.63;16.13;;;1.20;99.90;;;;;;4933925;29;20482;-77
2022/03/27 06:07:56;;;;;;;25.00;16.30;;;1.40;99.90;;;;;;4924269;29;20441;-77
2022/03/27 06:10:26;;;;;;;23.43;16.10;;;1.50;99.90;;;;;;4926453;29;20472;-77
2022/03/27 06:12:55;;;;;;;26.83;16.47;;;1.70;99.90;;;;;;4935653;29;20476;-77
2022/03/27 06:15:25;;;;;;;26.07;15.87;;;1.90;99.90;;;;;;4935469;29;20498;-79
2022/03/27 06:17:54;;;;;;;26.50;16.40;;;2.00;99.90;;;;;;4936601;29;20433;-75
2022/03/27 06:20:24;;;;;;;23.67;16.03;;;2.20;99.90;;;;;;4933672;29;20515;-76
2022/03/27 06:22:53;;;;;;;23.77;16.07;;;2.40;99.90;;;;;;4935291;29;20468;-79
2022/03/27 06:25:23;;;;;;;25.90;17.03;;;2.70;99.90;;;;;;4935082;29;20496;-79
2022/03/27 06:27:51;;;;;;;22.23;16.33;;;2.90;99.90;;;;;;4935766;29;20472;-75
2022/03/27 06:30:21;;;;;;;23.77;16.13;;;3.10;99.90;;;;;;4935538;29;20327;-78
2022/03/27 06:32:52;;;;;;;24.00;16.10;;;3.40;99.90;;;;;;4935310;29;20243;-79
2022/03/27 06:35:21;;;;;;;26.87;16.00;;;3.60;99.90;;;;;;4935393;29;20204;-77
2022/03/27 06:37:50;;;;;;;24.97;16.03;;;3.90;99.90;;;;;;4935064;29;20647;-79
2022/03/27 06:40:20;;;;;;;25.97;15.17;;;4.30;99.90;;;;;;4934914;29;20303;-77
2022/03/27 06:42:49;;;;;;;24.97;15.80;;;4.90;99.90;;;;;;4934973;29;20235;-79
2022/03/27 06:45:18;;;;;;;25.20;15.57;;;5.80;99.90;;;;;;4937234;29;20213;-78
2022/03/27 06:47:48;;;;;;;28.00;15.93;;;6.50;99.90;;;;;;4935020;29;20216;-78
2022/03/27 06:50:21;;;;;;;26.07;16.10;;;7.30;99.60;;;;;;4935831;29;20228;-76
2022/03/27 06:52:51;;;;;;;23.20;15.57;;;8.00;99.20;;;;;;4927497;29;20237;-78
2022/03/27 06:55:20;;;;;;;24.10;16.17;;;8.90;96.90;;;;;;4936331;29;20212;-79
2022/03/27 06:57:48;;;;;;;27.50;16.17;;;9.80;94.70;;;;;;4953515;28;20222;-78
2022/03/27 07:03:06;;;;;;;20.53;15.67;;;12.00;90.40;;;;;;4953639;28;20333;-76
2022/03/27 07:05:39;;;;;;;20.90;16.33;;;12.80;80.70;;;;;;4953483;28;20306;-76
2022/03/27 07:08:08;;;;;;;22.47;16.37;;;13.30;76.50;;;;;;4954268;28;20199;-77
2022/03/27 07:10:37;;;;;;;24.87;19.37;;;14.00;75.00;;;;;;4953895;28;20427;-76
2022/03/27 07:13:08;;;;;;;29.03;18.10;;;14.80;70.20;;;;;;4957906;28;20757;-77
2022/03/27 07:15:36;;;;;;;29.03;21.47;;;15.30;67.20;;;;;;4957700;28;20291;-76
2022/03/27 07:18:05;;;;;;;23.80;18.33;;;15.60;67.30;;;;;;4957734;28;20297;-78
2022/03/27 07:20:35;;;;;;;25.90;18.27;;;16.50;62.70;;;;;;4957659;28;20203;-78
2022/03/27 07:23:06;;;;;;;28.27;17.73;;;17.20;58.70;;;;;;4945936;28;20323;-77
2022/03/27 07:25:37;;;;;;;24.10;18.47;;;17.40;57.10;;;;;;4938613;29;20242;-75
2022/03/27 07:28:06;;;;;;;21.63;17.27;;;17.40;56.30;;;;;;4938424;29;20291;-78
2022/03/27 07:30:35;;;;;;;23.30;17.23;;;17.30;56.20;;;;;;4935018;29;20261;-77
2022/03/27 07:33:04;;;;;;;22.60;17.73;;;17.20;56.80;;;;;;4929870;29;20291;-78
2022/03/27 07:35:32;;;;;;;23.30;17.47;;;18.20;54.90;;;;;;4937706;29;20240;-77
2022/03/27 07:38:01;;;;;;;23.73;17.87;;;18.40;55.40;;;;;;4929019;29;20292;-78
2022/03/27 07:40:31;;;;;;;20.87;17.53;;;18.30;54.40;;;;;;4935375;29;20209;-78
2022/03/27 07:43:00;;;;;;;23.30;17.50;;;19.00;53.30;;;;;;4935091;29;20713;-74
2022/03/27 07:45:30;;;;;;;22.73;17.20;;;19.70;52.40;;;;;;4940353;29;20279;-76
2022/03/27 07:47:59;;;;;;;25.33;18.27;;;20.70;51.70;;;;;;4937628;29;20255;-75
2022/03/27 07:50:30;;;;;;;20.90;17.70;;;21.40;49.80;;;;;;4937028;29;20283;-77
2022/03/27 07:52:59;;;;;;;20.90;17.92;;;22.00;48.20;;;;;;4937843;29;20560;-75
2022/03/27 07:55:28;;;;;;;20.73;17.42;;;21.60;48.30;;;;;;4933403;29;20654;-75
2022/03/27 07:57:58;;;;;;;20.45;17.35;;;21.60;48.40;;;;;;4937287;29;20232;-79
2022/03/27 08:00:27;;;;;;;23.52;17.73;;;21.50;48.10;;;;;;4937465;29;20231;-76
2022/03/27 08:02:56;;;;;;;21.38;17.40;;;21.90;48.20;;;;;;4936738;29;20274;-76
2022/03/27 08:05:29;;;;;;;24.40;17.85;;;22.70;48.40;;;;;;4937514;29;20694;-77
2022/03/27 08:07:57;;;;;;;19.50;17.50;;;22.80;46.60;;;;;;4936382;29;20279;-77
2022/03/27 08:10:26;;;;;;;22.15;17.80;;;23.00;47.80;;;;;;4925553;29;20317;-74
2022/03/27 08:12:54;;;;;;;20.00;16.80;;;23.00;46.90;;;;;;4937352;29;20698;-76
2022/03/27 08:15:24;;;;;;;19.83;17.38;;;22.90;46.70;;;;;;4933053;29;20231;-75
2022/03/27 08:17:53;;;;;;;20.80;17.45;;;22.70;47.50;;;;;;4919576;29;20219;-75
2022/03/27 08:20:26;;;;;;;19.17;16.17;;;22.20;47.50;;;;;;4936268;29;20232;-76
2022/03/27 08:22:55;;;;;;;19.02;17.13;;;23.20;46.90;;;;;;4936717;29;20272;-78
2022/03/27 08:28:10;;;;;;;20.38;17.02;;;21.40;47.50;;;;;;4937513;29;20267;-75
2022/03/27 08:30:40;;;;;;;20.73;17.30;;;22.00;47.40;;;;;;4936994;29;20231;-74
2022/03/27 08:33:09;;;;;;;23.67;17.45;;;22.40;46.70;;;;;;4937334;29;20286;-77
2022/03/27 08:35:41;;;;;;;23.20;18.20;;;22.30;47.00;;;;;;4938162;29;20212;-74
2022/03/27 08:38:10;;;;;;;23.02;17.92;;;22.50;45.50;;;;;;4937488;29;20620;-75
2022/03/27 08:40:39;;;;;;;22.73;17.38;;;22.70;45.60;;;;;;4936983;29;20323;-78
2022/03/27 08:43:10;;;;;;;23.25;17.88;;;22.60;46.30;;;;;;4928438;29;20276;-76
2022/03/27 08:45:41;;;;;;;21.42;17.70;;;22.50;45.60;;;;;;4931439;29;20295;-75
2022/03/27 08:48:11;;;;;;;20.02;17.80;;;23.40;45.10;;;;;;4936926;29;20228;-74
2022/03/27 08:50:45;;;;;;;21.02;18.10;;;23.10;45.70;;;;;;4931211;29;20260;-77
2022/03/27 08:53:14;;;;;;;20.55;17.90;;;23.40;44.20;;;;;;4938290;29;20224;-78
2022/03/27 08:55:48;;;;;;;21.20;18.13;;;22.60;45.40;;;;;;4936248;29;20275;-74
2022/03/27 08:58:16;;;;;;;20.42;17.83;;;23.70;44.00;;;;;;4936399;29;20200;-75
2022/03/27 09:00:45;;;;;;;19.38;17.10;;;23.30;43.70;;;;;;4936541;29;20373;-77
2022/03/27 09:03:14;;;;;;;19.98;17.55;;;23.30;44.20;;;;;;4939759;29;20223;-76
2022/03/27 09:05:44;;;;;;;19.30;16.70;;;24.20;43.90;;;;;;4935917;29;20244;-75
2022/03/27 09:08:13;;;;;;;20.05;17.73;;;23.40;43.00;;;;;;4939912;29;20601;-76
2022/03/27 09:10:41;;;;;;;21.13;18.23;;;22.40;44.20;;;;;;4948018;29;20216;-74
2022/03/27 09:13:14;;;;;;;25.33;17.85;;;21.80;45.10;;;;;;4948445;29;20216;-76
2022/03/27 09:15:43;;;;;;;19.20;17.13;;;21.70;45.40;;;;;;4949209;29;20201;-75
2022/03/27 09:18:17;;;;;;;23.63;17.90;;;21.80;46.40;;;;;;4947667;29;20219;-76
2022/03/27 09:20:46;;;;;;;21.27;16.88;;;22.00;45.80;;;;;;4945631;29;20223;-75
2022/03/27 09:23:21;;;;;;;23.23;17.30;;;22.90;44.80;;;;;;4938955;29;20266;-75
2022/03/27 09:25:55;;;;;;;22.85;17.42;;;23.40;44.90;;;;;;4942808;29;20218;-77
2022/03/27 09:28:27;;;;;;;21.42;16.95;;;23.90;44.90;;;;;;4934768;29;20247;-76
2022/03/27 09:30:56;;;;;;;18.77;16.30;;;25.20;41.80;;;;;;4935092;29;20298;-76
2022/03/27 09:33:46;;;;;;;18.95;16.00;;;24.70;41.40;;;;;;4926673;29;20198;-75
2022/03/27 09:36:18;;;;;;;21.80;17.67;;;24.70;42.30;;;;;;4942110;29;20262;-75
2022/03/27 09:39:09;;;;;;;17.50;15.57;;;25.00;41.50;;;;;;4946295;28;20239;-73
2022/03/27 09:41:40;;;;;;;20.27;16.65;;;25.00;42.00;;;;;;4935741;29;20264;-75
2022/03/27 09:44:10;;;;;;;20.13;17.00;;;24.80;40.60;;;;;;4935431;29;20283;-75
2022/03/27 09:46:51;;;;;;;18.52;16.50;;;23.90;41.80;;;;;;4934869;29;20240;-72
2022/03/27 09:49:25;;;;;;;18.92;16.92;;;23.60;41.60;;;;;;4932626;29;20223;-73
2022/03/27 09:51:56;;;;;;;27.60;17.15;;;23.40;42.10;;;;;;4931696;29;20201;-75
2022/03/27 09:54:25;;;;;;;21.15;16.58;;;23.20;42.30;;;;;;4935778;29;20553;-72
2022/03/27 09:56:53;;;;;;;22.38;16.98;;;23.00;43.10;;;;;;4916004;29;20248;-75
2022/03/27 09:59:35;;;;;;;24.20;17.53;;;23.20;42.80;;;;;;4934937;29;20671;-75
2022/03/27 10:02:24;;;;;;;19.13;16.60;;;21.60;43.80;;;;;;4930212;29;20307;-74
2022/03/27 10:04:57;;;;;;;21.30;16.63;;;22.10;44.60;;;;;;4933921;29;20238;-73
2022/03/27 10:07:26;;;;;;;21.63;17.25;;;23.20;44.00;;;;;;4935119;29;20224;-75
2022/03/27 10:09:56;;;;;;;24.00;16.73;;;24.40;43.30;;;;;;4935128;29;20307;-73
2022/03/27 10:12:29;;;;;;;23.35;16.55;;;25.20;41.20;;;;;;4935536;29;20255;-75
2022/03/27 10:15:00;;;;;;;21.52;16.65;;;24.40;43.20;;;;;;4934720;29;20204;-75
2022/03/27 10:17:29;;;;;;;22.83;17.02;;;25.00;41.50;;;;;;4935249;29;20192;-73
2022/03/27 10:20:24;;;;;;;24.15;17.27;;;25.00;42.10;;;;;;4935517;29;20255;-72
2022/03/27 10:23:07;;;;;;;19.60;15.80;;;25.00;40.60;;;;;;4935037;29;20209;-76
2022/03/27 10:25:39;;;;;;;22.25;18.52;;;24.60;42.20;;;;;;4935005;29;20655;-74
2022/03/27 10:28:08;;;;;;;22.63;17.77;;;24.00;42.00;;;;;;4937988;28;20884;-76
2022/03/27 10:30:38;;;;;;;23.77;17.90;;;23.80;42.80;;;;;;4935421;29;20219;-75
2022/03/27 10:33:07;;;;;;;21.75;17.60;;;22.70;43.80;;;;;;4936923;29;20203;-79
2022/03/27 10:35:56;;;;;;;23.47;17.67;;;23.00;43.70;;;;;;4946791;28;20238;-78
2022/03/27 10:38:40;;;;;;;25.10;17.87;;;22.90;42.70;;;;;;4931997;29;20255;-79
2022/03/27 10:41:14;;;;;;;24.57;16.93;;;22.70;45.20;;;;;;4935269;29;20247;-74
2022/03/27 10:43:49;;;;;;;23.35;17.75;;;23.20;44.90;;;;;;4939102;29;20235;-77
2022/03/27 10:46:20;;;;;;;20.10;16.27;;;24.20;42.70;;;;;;4940688;29;20229;-77
2022/03/27 10:48:50;;;;;;;21.17;17.35;;;24.00;42.40;;;;;;4943618;29;20711;-76
2022/03/27 10:51:37;;;;;;;27.85;17.58;;;24.00;41.60;;;;;;4924440;29;20653;-75
2022/03/27 10:54:07;;;;;;;23.77;17.13;;;24.00;41.50;;;;;;4927639;29;20272;-78
2022/03/27 10:56:40;;;;;;;27.35;17.80;;;24.10;42.70;;;;;;4936055;29;20271;-78
2022/03/27 10:59:13;;;;;;;25.13;17.40;;;24.30;41.20;;;;;;4935603;29;20227;-75
2022/03/27 11:01:45;;;;;;;23.85;17.73;;;24.30;41.60;;;;;;4935400;29;20256;-78
2022/03/27 11:04:14;;;;;;;21.75;17.33;;;23.40;42.10;;;;;;4935443;29;20224;-74
2022/03/27 11:06:44;;;;;;;24.25;17.75;;;23.40;42.90;;;;;;4935446;29;20344;-75
2022/03/27 11:09:30;;;;;;;20.83;17.48;;;23.60;42.30;;;;;;4934704;29;20733;-79
2022/03/27 11:12:00;;;;;;;28.13;18.30;;;24.40;40.80;;;;;;4934718;29;20299;-77
2022/03/27 11:14:59;;;;;;;21.30;18.02;;;24.80;41.10;;;;;;4935012;29;20208;-74
2022/03/27 11:17:35;;;;;;;22.52;17.95;;;25.40;40.00;;;;;;4934586;29;20201;-75
2022/03/27 11:20:06;;;;;;;23.45;17.63;;;23.80;41.10;;;;;;4934471;29;20219;-74
2022/03/27 11:22:51;;;;;;;26.30;18.33;;;23.50;41.80;;;;;;4934784;29;20781;-77
2022/03/27 11:25:27;;;;;;;25.70;17.33;;;23.70;43.00;;;;;;4934852;29;20204;-78
2022/03/27 11:27:57;;;;;;;22.50;17.07;;;23.50;40.70;;;;;;4934689;29;20251;-76
2022/03/27 11:30:25;;;;;;;20.93;17.57;;;22.80;41.50;;;;;;4935088;29;20240;-77
2022/03/27 11:33:14;;;;;;;20.70;16.97;;;22.80;40.70;;;;;;4935109;29;20252;-78
2022/03/27 11:36:02;;;;;;;24.57;17.30;;;23.00;41.30;;;;;;4946201;28;20639;-79
2022/03/27 11:38:33;;;;;;;22.43;17.07;;;23.50;41.00;;;;;;4953585;28;20787;-78
2022/03/27 11:41:22;;;;;;;23.13;17.03;;;22.90;42.00;;;;;;4953483;28;20654;-74
2022/03/27 11:43:51;;;;;;;22.20;17.27;;;22.80;42.20;;;;;;4952406;28;20262;-73
2022/03/27 11:46:23;;;;;;;21.73;16.40;;;22.60;42.20;;;;;;4936151;29;20251;-74
2022/03/27 11:48:55;;;;;;;20.97;16.33;;;22.80;43.80;;;;;;4936610;29;20239;-74
2022/03/27 11:51:24;;;;;;;31.47;17.67;;;23.60;42.90;;;;;;4938324;29;20304;-73
2022/03/27 11:53:56;;;;;;;23.80;16.43;;;22.30;41.50;;;;;;4937090;29;20260;-73
2022/03/27 11:56:24;;;;;;;20.07;15.50;;;22.20;42.70;;;;;;4936370;29;20239;-77
2022/03/27 11:59:05;;;;;;;22.60;15.17;;;21.70;42.90;;;;;;4937405;29;20216;-76
2022/03/27 12:01:33;;;;;;;19.97;15.33;;;21.70;41.60;;;;;;4938140;29;20224;-77
2022/03/27 12:04:02;;;;;;;22.53;15.37;;;21.50;43.00;;;;;;4938165;29;20270;-77
2022/03/27 12:06:32;;;;;;;27.90;16.17;;;21.40;44.20;;;;;;4938034;29;20580;-77
2022/03/27 12:09:02;;;;;;;20.67;16.07;;;21.60;43.30;;;;;;4937837;29;20213;-75
2022/03/27 12:11:30;;;;;;;20.97;15.50;;;21.10;44.50;;;;;;4938127;29;20659;-73
2022/03/27 12:14:09;;;;;;;19.40;14.00;;;21.30;44.20;;;;;;4938039;29;20212;-77
2022/03/27 12:16:46;;;;;;;20.60;14.00;;;21.50;42.20;;;;;;4937683;29;20247;-77
2022/03/27 12:19:14;;;;;;;20.33;13.67;;;21.50;41.50;;;;;;4938280;29;20299;-76
2022/03/27 12:21:46;;;;;;;21.77;14.00;;;20.40;41.40;;;;;;4937847;29;20307;-76
2022/03/27 12:24:18;;;;;;;22.30;13.90;;;20.60;41.70;;;;;;4939287;29;20681;-75
2022/03/27 12:29:43;;;;;;;20.43;14.60;;;20.30;43.50;;;;;;4937685;29;20643;-77
2022/03/27 12:32:13;;;;;;;24.00;14.57;;;20.50;43.90;;;;;;4937312;29;20629;-76
2022/03/27 12:34:43;;;;;;;18.93;13.63;;;20.50;43.90;;;;;;4943342;29;20209;-74
2022/03/27 12:37:16;;;;;;;22.03;12.80;;;20.80;43.90;;;;;;4937640;29;20299;-73
2022/03/27 12:40:06;;;;;;;17.17;11.93;;;20.30;43.10;;;;;;4937572;29;20673;-73
2022/03/27 12:42:40;;;;;;;19.27;12.63;;;20.40;42.00;;;;;;4937640;29;20216;-75
2022/03/27 12:45:11;;;;;;;17.30;13.23;;;20.70;42.60;;;;;;4938462;29;20201;-78
2022/03/27 12:47:42;;;;;;;15.60;11.07;;;20.90;42.40;;;;;;4937558;29;20674;-75
2022/03/27 12:50:12;;;;;;;19.63;12.07;;;20.10;38.20;;;;;;4937708;29;20197;-74
2022/03/27 12:52:52;;;;;;;22.20;13.10;;;20.40;42.10;;;;;;4937605;29;20215;-75
2022/03/27 12:55:23;;;;;;;20.90;13.77;;;20.40;43.00;;;;;;4937214;29;20280;-76
2022/03/27 12:57:54;;;;;;;21.57;14.50;;;20.30;43.50;;;;;;4936910;29;20248;-77
2022/03/27 13:00:24;;;;;;;21.67;14.50;;;20.30;45.10;;;;;;4936872;29;20263;-76
2022/03/27 13:03:14;;;;;;;19.83;13.80;;;20.50;45.10;;;;;;4937122;29;20315;-76
2022/03/27 13:05:44;;;;;;;18.00;13.13;;;20.50;45.50;;;;;;4937182;29;20649;-73
2022/03/27 13:08:12;;;;;;;21.53;14.17;;;20.90;47.50;;;;;;4945893;29;20678;-77
2022/03/27 13:10:42;;;;;;;18.20;13.87;;;20.80;45.40;;;;;;4940041;29;20271;-76
2022/03/27 13:13:13;;;;;;;20.13;14.10;;;20.70;47.00;;;;;;4938218;29;20243;-76
2022/03/27 13:15:50;;;;;;;20.17;14.17;;;20.40;45.60;;;;;;4936755;29;20196;-74
2022/03/27 13:18:27;;;;;;;19.23;13.00;;;20.60;46.80;;;;;;4937269;29;20222;-77
2022/03/27 13:20:55;;;;;;;20.50;13.70;;;21.00;45.10;;;;;;4936612;29;20283;-75
2022/03/27 13:23:24;;;;;;;18.60;13.13;;;20.90;46.00;;;;;;4936878;29;20251;-76
2022/03/27 13:25:55;;;;;;;16.90;13.50;;;20.90;45.70;;;;;;4936630;29;20246;-75
2022/03/27 13:28:24;;;;;;;21.23;14.20;;;20.90;46.50;;;;;;4936510;29;20208;-76
2022/03/27 13:30:55;;;;;;;21.13;13.67;;;21.10;46.60;;;;;;4936739;29;20240;-75
2022/03/27 13:33:23;;;;;;;20.67;13.83;;;20.90;46.50;;;;;;4936465;29;20192;-77
2022/03/27 13:35:52;;;;;;;20.23;13.50;;;21.10;48.00;;;;;;4936503;29;20272;-77
2022/03/27 13:38:20;;;;;;;21.03;14.07;;;21.10;46.40;;;;;;4936501;29;20208;-75
2022/03/27 13:43:35;;;;;;;18.57;13.53;;;21.30;46.10;;;;;;4936324;29;20668;-75
2022/03/27 13:46:03;;;;;;;19.50;12.50;;;21.50;46.20;;;;;;4925164;29;20292;-75
2022/03/27 13:48:31;;;;;;;17.07;11.93;;;21.50;45.70;;;;;;4917410;29;20213;-76
2022/03/27 13:51:00;;;;;;;16.70;11.20;;;21.10;44.50;;;;;;4917095;29;20213;-76
2022/03/27 13:53:28;;;;;;;14.30;11.13;;;21.10;46.40;;;;;;4917385;29;20268;-75
2022/03/27 13:55:56;;;;;;;15.50;11.60;;;21.30;45.00;;;;;;4917053;29;20683;-77
2022/03/27 13:58:24;;;;;;;14.30;10.43;;;21.10;44.30;;;;;;4917270;29;20240;-78
2022/03/27 14:00:53;;;;;;;16.33;11.20;;;21.00;46.60;;;;;;4920244;29;20252;-75
2022/03/27 14:03:24;;;;;;;16.77;12.07;;;21.40;44.90;;;;;;4936026;29;20216;-75
2022/03/27 14:05:52;;;;;;;15.50;10.97;;;20.90;43.90;;;;;;4936034;29;20219;-77
2022/03/27 14:08:20;;;;;;;14.13;10.20;;;20.90;44.10;;;;;;4936063;29;20243;-76
2022/03/27 14:10:48;;;;;;;20.13;10.90;;;20.40;43.80;;;;;;4935906;29;20291;-76
2022/03/27 14:13:17;;;;;;;16.73;10.53;;;20.30;43.10;;;;;;4935561;29;20220;-77
2022/03/27 14:15:46;;;;;;;16.63;9.93;;;20.40;43.30;;;;;;4935750;29;20264;-73
2022/03/27 14:18:15;;;;;;;17.00;10.13;;;20.60;44.30;;;;;;4935709;29;20255;-78
2022/03/27 14:20:44;;;;;;;17.33;10.20;;;20.80;42.90;;;;;;4934887;29;20239;-78
2022/03/27 14:23:12;;;;;;;14.53;9.57;;;20.60;45.30;;;;;;4935912;29;20246;-78
2022/03/27 14:25:40;;;;;;;16.63;9.63;;;20.70;43.30;;;;;;4935653;29;20302;-75
2022/03/27 14:28:08;;;;;;;16.47;9.67;;;20.70;42.20;;;;;;4935510;29;20252;-77
2022/03/27 14:30:37;;;;;;;13.87;9.40;;;20.80;42.50;;;;;;4935737;29;20212;-75
2022/03/27 14:33:06;;;;;;;16.17;9.47;;;20.70;41.40;;;;;;4935835;29;20221;-78
2022/03/27 14:35:35;;;;;;;16.83;9.50;;;20.80;43.80;;;;;;4935692;29;20304;-74
2022/03/27 14:38:04;;;;;;;11.10;7.57;;;20.80;43.30;;;;;;4935498;29;20298;-77
2022/03/27 14:40:36;;;;;;;11.17;8.90;;;20.70;46.30;;;;;;4935622;29;20239;-78
2022/03/27 14:43:05;;;;;;;13.03;9.43;;;20.90;45.30;;;;;;4935651;29;20673;-75
2022/03/27 14:45:35;;;;;;;14.33;9.37;;;21.10;44.90;;;;;;4954210;29;20238;-77
2022/03/27 14:48:04;;;;;;;13.83;8.80;;;21.10;43.90;;;;;;4954656;28;20633;-76
2022/03/27 14:50:32;;;;;;;13.40;8.70;;;20.90;42.30;;;;;;4929408;28;20295;-76
2022/03/27 14:53:03;;;;;;;11.53;8.43;;;21.00;43.20;;;;;;4935453;29;20236;-75
2022/03/27 14:58:17;;;;;;;16.00;9.87;;;20.90;42.70;;;;;;4935644;29;20205;-76
2022/03/27 15:00:46;;;;;;;12.03;9.30;;;20.30;43.20;;;;;;4934596;29;20682;-75
2022/03/27 15:03:15;;;;;;;14.10;9.00;;;20.00;42.60;;;;;;4935452;29;20212;-75
2022/03/27 15:05:43;;;;;;;13.63;9.30;;;20.20;44.30;;;;;;4934701;29;20228;-75
2022/03/27 15:08:16;;;;;;;13.47;9.03;;;20.30;43.70;;;;;;4935234;29;20300;-75
2022/03/27 15:10:44;;;;;;;13.30;8.57;;;20.50;42.70;;;;;;4934803;29;20216;-74
2022/03/27 15:13:12;;;;;;;12.83;8.93;;;20.20;43.40;;;;;;4934116;29;20292;-79
2022/03/27 15:15:41;;;;;;;12.00;8.80;;;20.30;42.60;;;;;;4932449;29;20271;-77
2022/03/27 15:18:10;;;;;;;15.37;9.40;;;20.20;42.00;;;;;;4934080;29;20657;-74
2022/03/27 15:20:38;;;;;;;15.10;8.60;;;20.00;42.40;;;;;;4934421;29;20697;-74
2022/03/27 15:23:07;;;;;;;12.67;8.20;;;20.20;43.60;;;;;;4933681;29;20643;-76
2022/03/27 15:25:37;;;;;;;13.67;8.57;;;20.20;43.60;;;;;;4934389;29;20866;-75
2022/03/27 15:28:06;;;;;;;16.47;8.80;;;20.20;42.80;;;;;;4927181;29;20572;-76
2022/03/27 15:30:34;;;;;;;12.73;9.10;;;20.10;42.30;;;;;;4934143;29;20250;-78
2022/03/27 15:33:02;;;;;;;12.63;8.47;;;19.90;43.40;;;;;;4937016;29;20258;-77
2022/03/27 15:35:30;;;;;;;14.10;9.33;;;19.80;45.40;;;;;;4919059;29;20666;-79
2022/03/27 15:37:59;;;;;;;11.93;8.27;;;19.70;45.00;;;;;;4919805;29;20276;-78
2022/03/27 15:40:28;;;;;;;13.87;8.47;;;19.90;47.20;;;;;;4929903;29;20215;-78
2022/03/27 15:43:03;;;;;;;14.83;8.83;;;19.80;46.80;;;;;;4938169;29;20650;-76
2022/03/27 15:45:34;;;;;;;13.30;9.00;;;19.70;47.40;;;;;;4937101;29;20664;-78
2022/03/27 15:48:03;;;;;;;12.90;8.70;;;19.60;47.70;;;;;;4917873;29;20296;-76
2022/03/27 15:50:33;;;;;;;13.83;9.60;;;19.50;47.70;;;;;;4925531;29;20264;-79
2022/03/27 15:53:02;;;;;;;10.97;8.53;;;19.40;47.90;;;;;;4937950;29;20280;-77
2022/03/27 15:55:31;;;;;;;14.73;9.10;;;19.30;48.20;;;;;;4938131;29;20205;-77
2022/03/27 15:58:02;;;;;;;12.00;8.50;;;19.10;48.20;;;;;;4938273;29;20220;-78
2022/03/27 16:00:30;;;;;;;11.30;8.50;;;19.00;48.10;;;;;;4937670;29;20235;-77
2022/03/27 16:02:59;;;;;;;13.53;9.13;;;19.00;48.20;;;;;;4936207;29;20244;-78
2022/03/27 16:05:28;;;;;;;11.37;8.87;;;18.90;47.70;;;;;;4936875;29;20748;-77
2022/03/27 16:07:56;;;;;;;11.70;8.63;;;18.80;48.40;;;;;;4937262;29;20219;-78
2022/03/27 16:10:25;;;;;;;12.43;8.07;;;18.70;48.40;;;;;;4937592;29;20247;-78
2022/03/27 16:12:56;;;;;;;13.13;8.63;;;18.60;47.60;;;;;;4937422;29;20208;-79
2022/03/27 16:15:27;;;;;;;14.30;9.80;;;18.50;46.90;;;;;;4936640;29;20201;-77
2022/03/27 16:17:55;;;;;;;12.93;8.10;;;18.40;47.90;;;;;;4938149;29;20197;-78
2022/03/27 16:20:24;;;;;;;12.47;7.87;;;18.30;48.40;;;;;;4937348;29;20219;-78
2022/03/27 16:22:53;;;;;;;13.33;8.27;;;18.20;47.10;;;;;;4937191;29;20212;-79
2022/03/27 16:25:21;;;;;;;11.60;8.83;;;18.10;47.50;;;;;;4937212;29;20236;-78
2022/03/27 16:27:52;;;;;;;18.83;8.90;;;17.90;48.50;;;;;;4937579;29;20220;-80
2022/03/27 16:30:20;;;;;;;15.20;9.10;;;17.90;49.70;;;;;;4935242;29;20303;-81
2022/03/27 16:32:55;;;;;;;11.93;9.20;;;17.80;49.90;;;;;;4934698;29;20296;-78
2022/03/27 16:35:23;;;;;;;13.63;8.47;;;17.70;50.50;;;;;;4937381;29;20195;-76
2022/03/27 16:37:53;;;;;;;11.63;8.10;;;17.50;51.10;;;;;;4937033;29;20623;-77
2022/03/27 16:40:21;;;;;;;13.60;8.83;;;17.40;50.60;;;;;;4938263;29;20567;-79
2022/03/27 16:42:49;;;;;;;13.93;8.67;;;17.30;50.50;;;;;;4920528;29;20224;-76
2022/03/27 16:45:18;;;;;;;11.83;8.50;;;17.20;50.50;;;;;;4927601;29;20959;-78
2022/03/27 16:47:46;;;;;;;13.53;7.90;;;17.10;51.00;;;;;;4939964;29;20248;-75
2022/03/27 16:50:15;;;;;;;11.67;8.13;;;16.90;51.70;;;;;;4943385;29;20288;-76
2022/03/27 16:52:45;;;;;;;11.17;8.30;;;16.90;51.00;;;;;;4943404;29;20212;-75
2022/03/27 16:55:14;;;;;;;11.70;8.00;;;16.80;52.20;;;;;;4943872;29;20195;-77
2022/03/27 16:57:43;;;;;;;15.10;9.27;;;16.80;51.10;;;;;;4944916;29;20220;-77
2022/03/27 17:00:14;;;;;;;13.47;8.07;;;16.60;51.40;;;;;;4944246;29;20244;-73
2022/03/27 17:02:42;;;;;;;12.47;8.20;;;16.50;51.80;;;;;;4944814;29;20196;-75
2022/03/27 17:05:11;;;;;;;15.57;8.40;;;16.40;52.00;;;;;;4944955;29;20229;-78
2022/03/27 17:07:41;;;;;;;12.90;8.13;;;16.20;52.30;;;;;;4944604;29;20216;-75